sensor_id;sensor_type;location;lat;lon;timestamp;pressure;altitude;pressure_sealevel;temperature;humidity
43707;BME280;61348;53.392;-6.248;2023-05-21T00:01:14;101824.22;;;14.23;80.83
43707;BME280;61348;53.392;-6.248;2023-05-21T00:03:42;101826.19;;;14.22;80.91
43707;BME280;61348;53.392;-6.248;2023-05-21T00:06:12;101825.72;;;14.20;81.12
43707;BME280;61348;53.392;-6.248;2023-05-21T00:08:41;101820.97;;;14.21;81.09
43707;BME280;61348;53.392;-6.248;2023-05-21T00:11:09;101820.97;;;14.21;81.17
43707;BME280;61348;53.392;-6.248;2023-05-21T00:13:36;101826.56;;;14.21;81.18
43707;BME280;61348;53.392;-6.248;2023-05-21T00:16:04;101820.03;;;14.17;81.26
43707;BME280;61348;53.392;-6.248;2023-05-21T00:18:31;101822.47;;;14.18;81.40
43707;BME280;61348;53.392;-6.248;2023-05-21T00:20:59;101820.03;;;14.17;81.35
43707;BME280;61348;53.392;-6.248;2023-05-21T00:23:27;101818.88;;;14.18;81.53
43707;BME280;61348;53.392;-6.248;2023-05-21T00:25:54;101825.28;;;14.18;81.56
43707;BME280;61348;53.392;-6.248;2023-05-21T00:28:21;101813.16;;;14.14;81.39
43707;BME280;61348;53.392;-6.248;2023-05-21T00:30:48;101806.31;;;14.12;81.55
43707;BME280;61348;53.392;-6.248;2023-05-21T00:33:15;101806.31;;;14.12;81.66
43707;BME280;61348;53.392;-6.248;2023-05-21T00:35:42;101805.16;;;14.13;81.58
43707;BME280;61348;53.392;-6.248;2023-05-21T00:38:08;101805.41;;;14.08;81.57
43707;BME280;61348;53.392;-6.248;2023-05-21T00:40:35;101800.50;;;14.04;81.58
43707;BME280;61348;53.392;-6.248;2023-05-21T00:43:02;101797.94;;;13.99;81.77
43707;BME280;61348;53.392;-6.248;2023-05-21T00:45:29;101801.03;;;13.98;82.05
43707;BME280;61348;53.392;-6.248;2023-05-21T00:47:56;101781.91;;;13.96;82.01
43707;BME280;61348;53.392;-6.248;2023-05-21T00:50:23;101785.97;;;13.99;81.90
43707;BME280;61348;53.392;-6.248;2023-05-21T00:52:50;101782.28;;;13.95;82.08
43707;BME280;61348;53.392;-6.248;2023-05-21T00:55:17;101791.63;;;13.90;82.18
43707;BME280;61348;53.392;-6.248;2023-05-21T00:57:44;101794.75;;;13.89;82.28
43707;BME280;61348;53.392;-6.248;2023-05-21T01:00:13;101790.34;;;13.88;82.37
43707;BME280;61348;53.392;-6.248;2023-05-21T01:02:40;101791.63;;;13.90;82.19
43707;BME280;61348;53.392;-6.248;2023-05-21T01:05:08;101794.41;;;13.90;82.21
43707;BME280;61348;53.392;-6.248;2023-05-21T01:07:38;101783.16;;;13.87;82.48
43707;BME280;61348;53.392;-6.248;2023-05-21T01:10:08;101775.13;;;13.85;82.60
43707;BME280;61348;53.392;-6.248;2023-05-21T01:12:38;101781.06;;;13.84;82.37
43707;BME280;61348;53.392;-6.248;2023-05-21T01:15:06;101780.91;;;13.80;82.62
43707;BME280;61348;53.392;-6.248;2023-05-21T01:17:34;101772.44;;;13.77;82.82
43707;BME280;61348;53.392;-6.248;2023-05-21T01:20:01;101772.44;;;13.77;83.04
43707;BME280;61348;53.392;-6.248;2023-05-21T01:22:37;101764.78;;;13.74;83.09
43707;BME280;61348;53.392;-6.248;2023-05-21T01:25:08;101761.88;;;13.70;83.30
43707;BME280;61348;53.392;-6.248;2023-05-21T01:27:34;101760.59;;;13.68;83.26
43707;BME280;61348;53.392;-6.248;2023-05-21T01:30:01;101765.31;;;13.67;83.30
43707;BME280;61348;53.392;-6.248;2023-05-21T01:35:22;101766.97;;;13.68;83.59
43707;BME280;61348;53.392;-6.248;2023-05-21T01:38:03;101762.91;;;13.66;83.74
43707;BME280;61348;53.392;-6.248;2023-05-21T01:43:21;101754.88;;;13.64;83.66
43707;BME280;61348;53.392;-6.248;2023-05-21T01:45:51;101760.44;;;13.64;83.67
43707;BME280;61348;53.392;-6.248;2023-05-21T01:48:22;101759.97;;;13.62;83.80
43707;BME280;61348;53.392;-6.248;2023-05-21T01:50:50;101759.84;;;13.59;83.80
43707;BME280;61348;53.392;-6.248;2023-05-21T01:53:18;101756.22;;;13.58;83.85
43707;BME280;61348;53.392;-6.248;2023-05-21T01:55:45;101757.88;;;13.59;83.92
43707;BME280;61348;53.392;-6.248;2023-05-21T01:58:12;101762.50;;;13.55;83.79
43707;BME280;61348;53.392;-6.248;2023-05-21T02:00:41;101765.97;;;13.52;83.95
43707;BME280;61348;53.392;-6.248;2023-05-21T02:03:08;101749.13;;;13.49;84.28
43707;BME280;61348;53.392;-6.248;2023-05-21T02:05:35;101761.75;;;13.46;84.23
43707;BME280;61348;53.392;-6.248;2023-05-21T02:08:02;101745.72;;;13.43;84.49
43707;BME280;61348;53.392;-6.248;2023-05-21T02:10:29;101752.94;;;13.44;84.29
43707;BME280;61348;53.392;-6.248;2023-05-21T02:12:56;101756.88;;;13.43;84.50
43707;BME280;61348;53.392;-6.248;2023-05-21T02:15:22;101753.63;;;13.41;84.68
43707;BME280;61348;53.392;-6.248;2023-05-21T02:17:50;101758.72;;;13.39;84.64
43707;BME280;61348;53.392;-6.248;2023-05-21T02:20:17;101759.84;;;13.38;84.81
43707;BME280;61348;53.392;-6.248;2023-05-21T02:22:46;101752.66;;;13.37;85.01
43707;BME280;61348;53.392;-6.248;2023-05-21T02:25:15;101755.09;;;13.38;84.90
43707;BME280;61348;53.392;-6.248;2023-05-21T02:27:42;101755.94;;;13.39;84.78
43707;BME280;61348;53.392;-6.248;2023-05-21T02:30:11;101757.53;;;13.40;84.89
43707;BME280;61348;53.392;-6.248;2023-05-21T02:32:38;101767.38;;;13.37;84.62
43707;BME280;61348;53.392;-6.248;2023-05-21T02:35:10;101767.25;;;13.34;84.81
43707;BME280;61348;53.392;-6.248;2023-05-21T02:37:37;101754.69;;;13.28;84.90
43707;BME280;61348;53.392;-6.248;2023-05-21T02:40:07;101756.50;;;13.24;84.94
43707;BME280;61348;53.392;-6.248;2023-05-21T02:42:36;101756.88;;;13.22;85.01
43707;BME280;61348;53.392;-6.248;2023-05-21T02:45:09;101761.50;;;13.18;85.21
43707;BME280;61348;53.392;-6.248;2023-05-21T02:47:37;101754.13;;;13.14;85.07
43707;BME280;61348;53.392;-6.248;2023-05-21T02:50:05;101761.19;;;13.11;85.11
43707;BME280;61348;53.392;-6.248;2023-05-21T02:52:33;101761.06;;;13.08;85.24
43707;BME280;61348;53.392;-6.248;2023-05-21T02:55:00;101756.16;;;13.05;85.24
43707;BME280;61348;53.392;-6.248;2023-05-21T02:57:27;101756.47;;;13.03;85.33
43707;BME280;61348;53.392;-6.248;2023-05-21T02:59:53;101752.88;;;13.03;85.29
43707;BME280;61348;53.392;-6.248;2023-05-21T03:02:20;101748.81;;;13.00;85.41
43707;BME280;61348;53.392;-6.248;2023-05-21T03:04:48;101742.44;;;13.00;85.50
43707;BME280;61348;53.392;-6.248;2023-05-21T03:07:18;101748.81;;;13.00;85.71
43707;BME280;61348;53.392;-6.248;2023-05-21T03:09:45;101739.31;;;13.01;85.67
43707;BME280;61348;53.392;-6.248;2023-05-21T03:12:13;101744.06;;;13.01;85.58
43707;BME280;61348;53.392;-6.248;2023-05-21T03:14:40;101745.69;;;13.02;85.78
43707;BME280;61348;53.392;-6.248;2023-05-21T03:17:11;101744.06;;;13.01;85.72
43707;BME280;61348;53.392;-6.248;2023-05-21T03:19:43;101741.75;;;13.03;85.95
43707;BME280;61348;53.392;-6.248;2023-05-21T03:22:10;101743.38;;;13.04;85.87
43707;BME280;61348;53.392;-6.248;2023-05-21T03:24:37;101741.91;;;13.06;85.80
43707;BME280;61348;53.392;-6.248;2023-05-21T03:27:05;101740.78;;;13.07;85.83
43707;BME280;61348;53.392;-6.248;2023-05-21T03:29:33;101732.44;;;13.07;85.97
43707;BME280;61348;53.392;-6.248;2023-05-21T03:32:00;101732.75;;;13.06;86.30
43707;BME280;61348;53.392;-6.248;2023-05-21T03:34:27;101741.09;;;13.06;86.23
43707;BME280;61348;53.392;-6.248;2023-05-21T03:36:54;101735.06;;;13.04;86.08
43707;BME280;61348;53.392;-6.248;2023-05-21T03:39:21;101744.06;;;13.01;86.26
43707;BME280;61348;53.392;-6.248;2023-05-21T03:41:48;101742.44;;;13.00;86.42
43707;BME280;61348;53.392;-6.248;2023-05-21T03:44:14;101745.41;;;12.95;86.68
43707;BME280;61348;53.392;-6.248;2023-05-21T03:46:41;101738.09;;;12.90;86.71
43707;BME280;61348;53.392;-6.248;2023-05-21T03:49:10;101753.00;;;12.86;87.01
43707;BME280;61348;53.392;-6.248;2023-05-21T03:51:37;101746.97;;;12.83;87.32
43707;BME280;61348;53.392;-6.248;2023-05-21T03:54:05;101737.00;;;12.82;87.37
43707;BME280;61348;53.392;-6.248;2023-05-21T03:56:32;101748.94;;;12.83;87.57
43707;BME280;61348;53.392;-6.248;2023-05-21T03:58:58;101739.28;;;12.80;87.53
43707;BME280;61348;53.392;-6.248;2023-05-21T04:01:25;101742.06;;;12.80;87.54
43707;BME280;61348;53.392;-6.248;2023-05-21T04:03:54;101744.19;;;12.83;87.70
43707;BME280;61348;53.392;-6.248;2023-05-21T04:06:21;101738.63;;;12.83;87.81
43707;BME280;61348;53.392;-6.248;2023-05-21T04:08:48;101735.50;;;12.85;87.80
43707;BME280;61348;53.392;-6.248;2023-05-21T04:11:15;101733.88;;;12.84;87.84
43707;BME280;61348;53.392;-6.248;2023-05-21T04:13:42;101730.75;;;12.86;88.08
43707;BME280;61348;53.392;-6.248;2023-05-21T04:16:09;101723.72;;;12.88;88.25
43707;BME280;61348;53.392;-6.248;2023-05-21T04:18:38;101737.75;;;12.92;88.07
43707;BME280;61348;53.392;-6.248;2023-05-21T04:21:04;101727.94;;;12.94;88.08
43707;BME280;61348;53.392;-6.248;2023-05-21T04:23:32;101731.03;;;12.93;88.25
43707;BME280;61348;53.392;-6.248;2023-05-21T04:25:59;101715.84;;;12.90;88.05
43707;BME280;61348;53.392;-6.248;2023-05-21T04:28:28;101723.38;;;12.90;88.15
43707;BME280;61348;53.392;-6.248;2023-05-21T04:30:55;101725.34;;;12.89;88.38
43707;BME280;61348;53.392;-6.248;2023-05-21T04:33:22;101723.38;;;12.90;88.49
43707;BME280;61348;53.392;-6.248;2023-05-21T04:35:50;101720.13;;;12.88;88.47
43707;BME280;61348;53.392;-6.248;2023-05-21T04:38:17;101717.81;;;12.90;88.88
43707;BME280;61348;53.392;-6.248;2023-05-21T04:40:49;101730.91;;;12.89;88.81
43707;BME280;61348;53.392;-6.248;2023-05-21T04:43:16;101728.59;;;12.91;88.85
43707;BME280;61348;53.392;-6.248;2023-05-21T04:45:43;101732.66;;;12.94;89.14
43707;BME280;61348;53.392;-6.248;2023-05-21T04:48:11;101728.06;;;12.98;89.06
43707;BME280;61348;53.392;-6.248;2023-05-21T04:50:38;101723.00;;;13.00;89.18
43707;BME280;61348;53.392;-6.248;2023-05-21T04:53:07;101725.06;;;13.03;89.31
43707;BME280;61348;53.392;-6.248;2023-05-21T04:55:34;101723.94;;;13.04;89.40
43707;BME280;61348;53.392;-6.248;2023-05-21T04:58:05;101720.50;;;13.07;89.46
43707;BME280;61348;53.392;-6.248;2023-05-21T05:00:38;101716.72;;;13.11;89.38
43707;BME280;61348;53.392;-6.248;2023-05-21T05:03:07;101708.16;;;13.16;89.48
43707;BME280;61348;53.392;-6.248;2023-05-21T05:05:34;101699.59;;;13.21;89.40
43707;BME280;61348;53.392;-6.248;2023-05-21T05:08:02;101706.13;;;13.25;89.06
43707;BME280;61348;53.392;-6.248;2023-05-21T05:10:29;101712.97;;;13.28;89.21
43707;BME280;61348;53.392;-6.248;2023-05-21T05:12:56;101714.63;;;13.29;89.47
43707;BME280;61348;53.392;-6.248;2023-05-21T05:15:23;101713.91;;;13.32;89.64
43707;BME280;61348;53.392;-6.248;2023-05-21T05:17:50;101708.50;;;13.35;89.65
43707;BME280;61348;53.392;-6.248;2023-05-21T05:20:17;101707.00;;;13.38;89.75
43707;BME280;61348;53.392;-6.248;2023-05-21T05:22:44;101701.59;;;13.41;89.67
43707;BME280;61348;53.392;-6.248;2023-05-21T05:25:11;101700.91;;;13.45;89.75
43707;BME280;61348;53.392;-6.248;2023-05-21T05:27:38;101707.06;;;13.50;89.49
43707;BME280;61348;53.392;-6.248;2023-05-21T05:30:05;101708.47;;;13.56;89.52
43707;BME280;61348;53.392;-6.248;2023-05-21T05:32:35;101717.78;;;13.60;89.29
43707;BME280;61348;53.392;-6.248;2023-05-21T05:35:02;101717.41;;;13.62;89.18
43707;BME280;61348;53.392;-6.248;2023-05-21T05:37:29;101717.88;;;13.64;89.07
43707;BME280;61348;53.392;-6.248;2023-05-21T05:39:56;101725.91;;;13.65;89.25
43707;BME280;61348;53.392;-6.248;2023-05-21T05:42:23;101725.22;;;13.68;88.98
43707;BME280;61348;53.392;-6.248;2023-05-21T05:44:50;101726.97;;;13.73;89.16
43707;BME280;61348;53.392;-6.248;2023-05-21T05:47:16;101727.31;;;13.71;88.94
43707;BME280;61348;53.392;-6.248;2023-05-21T05:49:43;101720.59;;;13.72;89.02
43707;BME280;61348;53.392;-6.248;2023-05-21T05:52:10;101717.81;;;13.72;89.07
43707;BME280;61348;53.392;-6.248;2023-05-21T05:54:37;101715.97;;;13.76;88.95
43707;BME280;61348;53.392;-6.248;2023-05-21T05:57:04;101717.13;;;13.75;88.95
43707;BME280;61348;53.392;-6.248;2023-05-21T05:59:31;101720.72;;;13.76;89.19
43707;BME280;61348;53.392;-6.248;2023-05-21T06:01:59;101724.78;;;13.78;89.02
43707;BME280;61348;53.392;-6.248;2023-05-21T06:04:26;101724.09;;;13.81;88.91
43707;BME280;61348;53.392;-6.248;2023-05-21T06:06:56;101730.50;;;13.82;89.20
43707;BME280;61348;53.392;-6.248;2023-05-21T06:09:26;101732.09;;;13.83;89.02
43707;BME280;61348;53.392;-6.248;2023-05-21T06:11:52;101732.25;;;13.86;88.86
43707;BME280;61348;53.392;-6.248;2023-05-21T06:14:19;101741.50;;;13.90;88.78
43707;BME280;61348;53.392;-6.248;2023-05-21T06:16:46;101732.16;;;13.95;88.47
43707;BME280;61348;53.392;-6.248;2023-05-21T06:19:13;101737.81;;;13.98;88.63
43707;BME280;61348;53.392;-6.248;2023-05-21T06:21:40;101744.34;;;14.02;88.54
43707;BME280;61348;53.392;-6.248;2023-05-21T06:24:06;101746.44;;;14.06;88.54
43707;BME280;61348;53.392;-6.248;2023-05-21T06:26:33;101742.94;;;14.09;88.44
43707;BME280;61348;53.392;-6.248;2023-05-21T06:29:00;101735.56;;;14.13;88.29
43707;BME280;61348;53.392;-6.248;2023-05-21T06:31:29;101744.38;;;14.15;88.22
43707;BME280;61348;53.392;-6.248;2023-05-21T06:33:59;101746.00;;;14.16;88.35
43707;BME280;61348;53.392;-6.248;2023-05-21T06:36:26;101750.06;;;14.18;88.42
43707;BME280;61348;53.392;-6.248;2023-05-21T06:38:55;101750.16;;;14.22;88.24
43707;BME280;61348;53.392;-6.248;2023-05-21T06:41:22;101749.97;;;14.27;88.20
43707;BME280;61348;53.392;-6.248;2023-05-21T06:43:49;101753.69;;;14.31;88.14
43707;BME280;61348;53.392;-6.248;2023-05-21T06:46:17;101754.66;;;14.35;87.90
43707;BME280;61348;53.392;-6.248;2023-05-21T06:48:44;101755.59;;;14.39;87.74
43707;BME280;61348;53.392;-6.248;2023-05-21T06:51:12;101763.03;;;14.47;87.71
43707;BME280;61348;53.392;-6.248;2023-05-21T06:53:39;101757.69;;;14.54;87.49
43707;BME280;61348;53.392;-6.248;2023-05-21T06:56:07;101770.22;;;14.60;87.30
43707;BME280;61348;53.392;-6.248;2023-05-21T06:58:33;101774.44;;;14.66;87.02
43707;BME280;61348;53.392;-6.248;2023-05-21T07:01:00;101759.78;;;14.69;86.99
43707;BME280;61348;53.392;-6.248;2023-05-21T07:03:28;101768.72;;;14.75;86.70
43707;BME280;61348;53.392;-6.248;2023-05-21T07:05:56;101766.06;;;14.78;86.58
43707;BME280;61348;53.392;-6.248;2023-05-21T07:08:23;101768.16;;;14.81;86.76
43707;BME280;61348;53.392;-6.248;2023-05-21T07:10:50;101765.13;;;14.86;86.89
43707;BME280;61348;53.392;-6.248;2023-05-21T07:13:17;101769.63;;;14.91;86.67
43707;BME280;61348;53.392;-6.248;2023-05-21T07:15:43;101765.69;;;14.92;86.51
43707;BME280;61348;53.392;-6.248;2023-05-21T07:18:10;101771.41;;;14.95;86.37
43707;BME280;61348;53.392;-6.248;2023-05-21T07:20:38;101762.78;;;15.00;86.11
43707;BME280;61348;53.392;-6.248;2023-05-21T07:23:05;101768.63;;;14.95;85.81
43707;BME280;61348;53.392;-6.248;2023-05-21T07:25:32;101768.25;;;14.97;85.77
43707;BME280;61348;53.392;-6.248;2023-05-21T07:27:59;101764.88;;;15.03;85.70
43707;BME280;61348;53.392;-6.248;2023-05-21T07:30:26;101767.75;;;15.07;85.55
43707;BME280;61348;53.392;-6.248;2023-05-21T07:32:53;101772.78;;;15.13;85.57
43707;BME280;61348;53.392;-6.248;2023-05-21T07:35:20;101769.03;;;15.21;85.39
43707;BME280;61348;53.392;-6.248;2023-05-21T07:37:47;101775.66;;;15.29;85.49
43707;BME280;61348;53.392;-6.248;2023-05-21T07:40:14;101778.56;;;15.33;85.16
43707;BME280;61348;53.392;-6.248;2023-05-21T07:42:41;101783.88;;;15.38;84.94
43707;BME280;61348;53.392;-6.248;2023-05-21T07:45:08;101778.06;;;15.43;84.82
43707;BME280;61348;53.392;-6.248;2023-05-21T07:47:35;101777.13;;;15.51;84.37
43707;BME280;61348;53.392;-6.248;2023-05-21T07:50:02;101790.84;;;15.56;84.03
43707;BME280;61348;53.392;-6.248;2023-05-21T07:52:29;101788.94;;;15.60;83.66
43707;BME280;61348;53.392;-6.248;2023-05-21T07:54:56;101791.03;;;15.63;83.50
43707;BME280;61348;53.392;-6.248;2023-05-21T07:57:24;101784.75;;;15.66;83.33
43707;BME280;61348;53.392;-6.248;2023-05-21T07:59:53;101771.00;;;15.73;83.26
43707;BME280;61348;53.392;-6.248;2023-05-21T08:02:19;101776.09;;;15.83;83.21
43707;BME280;61348;53.392;-6.248;2023-05-21T08:04:47;101778.94;;;15.99;83.06
43707;BME280;61348;53.392;-6.248;2023-05-21T08:07:14;101785.09;;;16.20;82.91
43707;BME280;61348;53.392;-6.248;2023-05-21T08:09:45;101784.13;;;16.43;82.75
43707;BME280;61348;53.392;-6.248;2023-05-21T08:12:12;101785.69;;;16.57;82.14
43707;BME280;61348;53.392;-6.248;2023-05-21T08:14:42;101782.19;;;16.60;81.63
43707;BME280;61348;53.392;-6.248;2023-05-21T08:17:09;101798.03;;;16.56;81.27
43707;BME280;61348;53.392;-6.248;2023-05-21T08:19:39;101791.53;;;16.52;80.77
43707;BME280;61348;53.392;-6.248;2023-05-21T08:22:07;101787.75;;;16.44;80.53
43707;BME280;61348;53.392;-6.248;2023-05-21T08:24:34;101794.84;;;16.41;80.07
43707;BME280;61348;53.392;-6.248;2023-05-21T08:27:01;101795.66;;;16.42;79.79
43707;BME280;61348;53.392;-6.248;2023-05-21T08:29:27;101796.66;;;16.50;79.53
43707;BME280;61348;53.392;-6.248;2023-05-21T08:31:54;101802.91;;;16.59;79.33
43707;BME280;61348;53.392;-6.248;2023-05-21T08:34:21;101798.75;;;16.68;78.71
43707;BME280;61348;53.392;-6.248;2023-05-21T08:36:48;101793.25;;;16.72;78.26
43707;BME280;61348;53.392;-6.248;2023-05-21T08:39:16;101792.66;;;16.78;77.99
43707;BME280;61348;53.392;-6.248;2023-05-21T08:41:43;101806.41;;;16.87;77.77
43707;BME280;61348;53.392;-6.248;2023-05-21T08:44:19;101798.28;;;16.97;77.56
43707;BME280;61348;53.392;-6.248;2023-05-21T08:46:48;101799.75;;;16.91;77.64
43707;BME280;61348;53.392;-6.248;2023-05-21T08:49:16;101797.25;;;16.86;76.99
43707;BME280;61348;53.392;-6.248;2023-05-21T08:51:45;101797.88;;;16.80;76.44
43707;BME280;61348;53.392;-6.248;2023-05-21T08:54:12;101803.19;;;16.69;76.23
43707;BME280;61348;53.392;-6.248;2023-05-21T08:56:42;101813.66;;;16.57;75.67
43707;BME280;61348;53.392;-6.248;2023-05-21T08:59:12;101809.72;;;16.45;75.66
43707;BME280;61348;53.392;-6.248;2023-05-21T09:01:40;101801.25;;;16.42;75.25
43707;BME280;61348;53.392;-6.248;2023-05-21T09:04:11;101803.84;;;16.35;75.06
43707;BME280;61348;53.392;-6.248;2023-05-21T09:06:47;101802.16;;;16.30;74.29
43707;BME280;61348;53.392;-6.248;2023-05-21T09:09:26;101807.25;;;16.28;74.53
43707;BME280;61348;53.392;-6.248;2023-05-21T09:11:55;101808.06;;;16.29;74.05
43707;BME280;61348;53.392;-6.248;2023-05-21T09:14:23;101809.34;;;16.31;73.90
43707;BME280;61348;53.392;-6.248;2023-05-21T09:16:49;101801.44;;;16.33;73.69
43707;BME280;61348;53.392;-6.248;2023-05-21T09:19:19;101810.59;;;16.34;73.46
43707;BME280;61348;53.392;-6.248;2023-05-21T09:21:50;101806.66;;;16.35;73.63
43707;BME280;61348;53.392;-6.248;2023-05-21T09:24:20;101810.72;;;16.37;73.73
43707;BME280;61348;53.392;-6.248;2023-05-21T09:26:50;101805.56;;;16.39;73.61
43707;BME280;61348;53.392;-6.248;2023-05-21T09:29:18;101811.59;;;16.41;73.97
43707;BME280;61348;53.392;-6.248;2023-05-21T09:31:44;101808.09;;;16.44;73.51
43707;BME280;61348;53.392;-6.248;2023-05-21T09:34:12;101808.81;;;16.41;73.44
43707;BME280;61348;53.392;-6.248;2023-05-21T09:36:42;101814.06;;;16.43;73.51
43707;BME280;61348;53.392;-6.248;2023-05-21T09:39:26;101806.50;;;16.43;73.51
43707;BME280;61348;53.392;-6.248;2023-05-21T09:41:56;101805.31;;;16.44;73.32
43707;BME280;61348;53.392;-6.248;2023-05-21T09:44:23;101813.34;;;16.46;73.37
43707;BME280;61348;53.392;-6.248;2023-05-21T09:46:56;101808.47;;;16.43;73.41
43707;BME280;61348;53.392;-6.248;2023-05-21T09:49:24;101804.03;;;16.42;73.62
43707;BME280;61348;53.392;-6.248;2023-05-21T09:51:57;101809.56;;;16.38;73.37
43707;BME280;61348;53.392;-6.248;2023-05-21T09:54:30;101804.69;;;16.35;73.51
43707;BME280;61348;53.392;-6.248;2023-05-21T09:56:59;101809.34;;;16.31;73.50
43707;BME280;61348;53.392;-6.248;2023-05-21T09:59:37;101802.50;;;16.29;73.68
43707;BME280;61348;53.392;-6.248;2023-05-21T10:02:19;101806.38;;;16.24;73.55
43707;BME280;61348;53.392;-6.248;2023-05-21T10:04:48;101811.03;;;16.20;73.73
43707;BME280;61348;53.392;-6.248;2023-05-21T10:07:18;101810.59;;;16.18;73.47
43707;BME280;61348;53.392;-6.248;2023-05-21T10:09:47;101816.88;;;16.15;73.62
43707;BME280;61348;53.392;-6.248;2023-05-21T10:12:16;101815.28;;;16.14;73.43
43707;BME280;61348;53.392;-6.248;2023-05-21T10:14:50;101811.22;;;16.12;73.22
43707;BME280;61348;53.392;-6.248;2023-05-21T10:17:18;101803.16;;;16.10;72.94
43707;BME280;61348;53.392;-6.248;2023-05-21T10:19:46;101812.03;;;16.12;72.98
43707;BME280;61348;53.392;-6.248;2023-05-21T10:22:14;101805.69;;;16.15;73.08
43707;BME280;61348;53.392;-6.248;2023-05-21T10:24:42;101813.81;;;16.20;73.30
43707;BME280;61348;53.392;-6.248;2023-05-21T10:27:11;101812.66;;;16.21;73.06
43707;BME280;61348;53.392;-6.248;2023-05-21T10:29:40;101805.91;;;16.22;73.27
43707;BME280;61348;53.392;-6.248;2023-05-21T10:32:07;101802.84;;;16.27;73.43
43707;BME280;61348;53.392;-6.248;2023-05-21T10:34:36;101803.03;;;16.34;73.11
43707;BME280;61348;53.392;-6.248;2023-05-21T10:37:06;101807.09;;;16.37;73.09
43707;BME280;61348;53.392;-6.248;2023-05-21T10:39:34;101800.91;;;16.43;73.34
43707;BME280;61348;53.392;-6.248;2023-05-21T10:44:51;101800.50;;;16.57;73.36
43707;BME280;61348;53.392;-6.248;2023-05-21T10:53:24;101797.84;;;16.95;73.00
43707;BME280;61348;53.392;-6.248;2023-05-21T10:59:08;101785.50;;;17.31;72.58
43707;BME280;61348;53.392;-6.248;2023-05-21T11:01:39;101794.63;;;17.47;72.82
43707;BME280;61348;53.392;-6.248;2023-05-21T11:04:08;101776.63;;;17.64;72.66
43707;BME280;61348;53.392;-6.248;2023-05-21T11:06:35;101784.97;;;17.80;72.35
43707;BME280;61348;53.392;-6.248;2023-05-21T11:09:14;101784.22;;;18.02;72.15
43707;BME280;61348;53.392;-6.248;2023-05-21T11:11:49;101784.94;;;18.18;72.12
43707;BME280;61348;53.392;-6.248;2023-05-21T11:19:43;101773.53;;;18.49;71.51
43707;BME280;61348;53.392;-6.248;2023-05-21T11:24:47;101783.28;;;18.59;70.85
43707;BME280;61348;53.392;-6.248;2023-05-21T11:27:39;101782.72;;;18.72;70.83
43707;BME280;61348;53.392;-6.248;2023-05-21T11:30:09;101776.38;;;18.75;70.01
43707;BME280;61348;53.392;-6.248;2023-05-21T11:38:16;101772.66;;;18.94;70.04
43707;BME280;61348;53.392;-6.248;2023-05-21T11:40:51;101773.38;;;18.88;69.86
43707;BME280;61348;53.392;-6.248;2023-05-21T11:43:21;101770.25;;;18.93;69.87
43707;BME280;61348;53.392;-6.248;2023-05-21T11:45:51;101773.53;;;18.98;69.71
43707;BME280;61348;53.392;-6.248;2023-05-21T11:48:20;101761.19;;;19.03;68.76
43707;BME280;61348;53.392;-6.248;2023-05-21T11:50:46;101761.44;;;18.94;68.17
43707;BME280;61348;53.392;-6.248;2023-05-21T11:53:14;101766.88;;;18.83;68.62
43707;BME280;61348;53.392;-6.248;2023-05-21T11:55:41;101760.53;;;18.64;68.45
43707;BME280;61348;53.392;-6.248;2023-05-21T11:58:12;101764.22;;;18.68;68.86
43707;BME280;61348;53.392;-6.248;2023-05-21T12:00:39;101762.72;;;18.74;68.49
43707;BME280;61348;53.392;-6.248;2023-05-21T12:03:06;101758.41;;;18.80;68.13
43707;BME280;61348;53.392;-6.248;2023-05-21T12:05:48;101761.50;;;18.98;68.08
43707;BME280;61348;53.392;-6.248;2023-05-21T12:08:22;101764.00;;;19.06;67.79
43707;BME280;61348;53.392;-6.248;2023-05-21T12:10:59;101761.28;;;19.10;67.83
43707;BME280;61348;53.392;-6.248;2023-05-21T12:13:27;101766.94;;;19.13;67.43
43707;BME280;61348;53.392;-6.248;2023-05-21T12:15:54;101764.91;;;19.10;67.32
43707;BME280;61348;53.392;-6.248;2023-05-21T12:18:21;101761.69;;;19.12;67.64
43707;BME280;61348;53.392;-6.248;2023-05-21T12:20:50;101756.28;;;19.26;67.66
43707;BME280;61348;53.392;-6.248;2023-05-21T12:23:19;101769.50;;;19.52;67.12
43707;BME280;61348;53.392;-6.248;2023-05-21T12:25:46;101761.28;;;19.66;66.75
43707;BME280;61348;53.392;-6.248;2023-05-21T12:28:13;101762.75;;;19.89;66.54
43707;BME280;61348;53.392;-6.248;2023-05-21T12:30:41;101765.41;;;20.12;65.98
43707;BME280;61348;53.392;-6.248;2023-05-21T12:33:07;101775.34;;;20.36;65.90
43707;BME280;61348;53.392;-6.248;2023-05-21T12:35:36;101772.75;;;20.57;65.04
43707;BME280;61348;53.392;-6.248;2023-05-21T12:38:03;101775.56;;;20.57;64.51
43707;BME280;61348;53.392;-6.248;2023-05-21T12:40:37;101772.66;;;20.46;64.82
43707;BME280;61348;53.392;-6.248;2023-05-21T12:43:05;101764.16;;;20.43;64.49
43707;BME280;61348;53.392;-6.248;2023-05-21T12:45:33;101764.78;;;20.26;64.41
43707;BME280;61348;53.392;-6.248;2023-05-21T12:48:00;101762.41;;;20.28;63.95
43707;BME280;61348;53.392;-6.248;2023-05-21T12:50:27;101763.00;;;20.47;63.87
43707;BME280;61348;53.392;-6.248;2023-05-21T12:52:55;101776.44;;;20.68;63.30
43707;BME280;61348;53.392;-6.248;2023-05-21T12:55:24;101769.06;;;21.00;63.02
43707;BME280;61348;53.392;-6.248;2023-05-21T12:58:03;101770.41;;;21.17;62.26
43707;BME280;61348;53.392;-6.248;2023-05-21T13:00:36;101779.22;;;21.15;61.16
43707;BME280;61348;53.392;-6.248;2023-05-21T13:03:03;101767.63;;;21.20;60.73
43707;BME280;61348;53.392;-6.248;2023-05-21T13:05:32;101762.84;;;21.28;60.62
43707;BME280;61348;53.392;-6.248;2023-05-21T13:08:00;101756.03;;;21.40;60.77
43707;BME280;61348;53.392;-6.248;2023-05-21T13:10:28;101771.34;;;21.42;60.18
43707;BME280;61348;53.392;-6.248;2023-05-21T13:12:54;101768.53;;;21.39;59.53
43707;BME280;61348;53.392;-6.248;2023-05-21T13:15:22;101764.97;;;21.49;59.26
43707;BME280;61348;53.392;-6.248;2023-05-21T13:17:48;101766.97;;;21.48;58.73